Time;durP1;ratioP1;P1;durP2;ratioP2;P2;SDS_P1;SDS_P2;PMS_P1;PMS_P2;Temp;Humidity;BMP_temperature;BMP_pressure;BME280_temperature;BME280_humidity;BME280_pressure;Samples;Min_cycle;Max_cycle;Signal;HPM_P1;HPM_P2
2021/12/03 00:02:06;;;;;;;4.10;2.73;;;;;;;;;;5048578;28;20486;-64
2021/12/03 00:04:32;;;;;;;2.80;2.50;;;;;;;;;;5052849;28;20498;-64
2021/12/03 00:07:00;;;;;;;3.10;2.80;;;;;;;;;;5052744;28;20481;-64
2021/12/03 00:09:26;;;;;;;5.10;4.00;;;;;;;;;;5048199;28;20179;-64
2021/12/03 00:11:52;;;;;;;4.90;2.92;;;;;;;;;;5033692;28;20199;-65
2021/12/03 00:14:18;;;;;;;5.00;3.22;;;;;;;;;;5036591;28;20609;-65
2021/12/03 00:16:44;;;;;;;4.83;3.70;;;;;;;;;;5036736;28;20583;-64
2021/12/03 00:19:10;;;;;;;5.85;3.30;;;;;;;;;;5038241;28;20437;-64
2021/12/03 00:21:37;;;;;;;4.43;3.57;;;;;;;;;;5036557;28;20271;-66
2021/12/03 00:24:03;;;;;;;5.68;3.63;;;;;;;;;;5036504;28;20415;-66
2021/12/03 00:26:29;;;;;;;6.03;3.40;;;;;;;;;;5036491;28;20202;-66
2021/12/03 00:28:55;;;;;;;4.72;3.58;;;;;;;;;;5036172;28;20199;-67
2021/12/03 00:31:21;;;;;;;4.73;3.50;;;;;;;;;;5036188;28;20551;-66
2021/12/03 00:33:48;;;;;;;6.60;3.10;;;;;;;;;;5036250;28;20982;-66
2021/12/03 00:36:14;;;;;;;5.35;4.05;;;;;;;;;;5036340;28;20431;-66
2021/12/03 00:38:42;;;;;;;4.95;3.13;;;;;;;;;;5036146;28;20173;-66
2021/12/03 00:41:11;;;;;;;4.53;3.80;;;;;;;;;;5036176;28;20190;-66
2021/12/03 00:43:41;;;;;;;6.47;3.45;;;;;;;;;;5036175;28;20238;-66
2021/12/03 00:46:09;;;;;;;7.72;4.10;;;;;;;;;;5039679;28;20179;-66
2021/12/03 00:48:35;;;;;;;6.80;4.45;;;;;;;;;;5055955;28;20168;-67
2021/12/03 00:51:01;;;;;;;7.40;3.90;;;;;;;;;;5055897;28;20180;-65
2021/12/03 00:53:27;;;;;;;5.00;4.05;;;;;;;;;;5055765;28;20547;-65
2021/12/03 00:55:53;;;;;;;4.88;3.72;;;;;;;;;;5034625;28;20683;-66
2021/12/03 00:58:19;;;;;;;5.38;3.85;;;;;;;;;;5035636;28;20183;-65
2021/12/03 01:00:45;;;;;;;7.00;4.30;;;;;;;;;;5035950;28;20205;-66
2021/12/03 01:03:12;;;;;;;8.73;4.67;;;;;;;;;;5035872;28;20446;-65
2021/12/03 01:05:37;;;;;;;6.88;4.80;;;;;;;;;;5055316;28;20494;-65
2021/12/03 01:08:04;;;;;;;7.00;3.97;;;;;;;;;;5055560;28;20269;-67
2021/12/03 01:10:30;;;;;;;6.80;4.45;;;;;;;;;;5055667;28;20407;-65
2021/12/03 01:12:56;;;;;;;6.30;4.25;;;;;;;;;;5048825;28;20212;-66
2021/12/03 01:15:26;;;;;;;5.85;4.40;;;;;;;;;;5035531;28;20205;-67
2021/12/03 01:17:52;;;;;;;4.93;4.23;;;;;;;;;;5034104;28;20546;-67
2021/12/03 01:20:18;;;;;;;6.47;4.47;;;;;;;;;;5035560;28;20496;-65
2021/12/03 01:22:45;;;;;;;6.53;4.70;;;;;;;;;;5044082;28;20188;-67
2021/12/03 01:25:12;;;;;;;5.15;4.50;;;;;;;;;;5054780;28;20241;-67
2021/12/03 01:27:38;;;;;;;4.75;4.22;;;;;;;;;;5055241;28;20255;-65
2021/12/03 01:30:07;;;;;;;5.40;4.30;;;;;;;;;;5054356;28;20208;-68
2021/12/03 01:32:33;;;;;;;5.75;4.40;;;;;;;;;;5055022;28;20203;-65
2021/12/03 01:34:59;;;;;;;7.22;4.63;;;;;;;;;;5055155;28;20529;-66
2021/12/03 01:37:25;;;;;;;8.73;5.00;;;;;;;;;;5054889;28;20172;-67
2021/12/03 01:39:51;;;;;;;5.25;4.75;;;;;;;;;;5042240;28;20193;-65
2021/12/03 01:42:17;;;;;;;5.20;3.63;;;;;;;;;;5034951;28;20176;-66
2021/12/03 01:44:43;;;;;;;9.07;4.53;;;;;;;;;;5034852;28;20169;-66
2021/12/03 01:47:09;;;;;;;10.18;5.38;;;;;;;;;;5034906;28;20172;-67
2021/12/03 01:49:35;;;;;;;6.65;4.30;;;;;;;;;;5044895;28;20189;-66
2021/12/03 01:52:01;;;;;;;8.13;4.60;;;;;;;;;;5054572;28;20176;-65
2021/12/03 01:54:27;;;;;;;7.93;4.10;;;;;;;;;;5054796;28;20254;-65
2021/12/03 01:56:54;;;;;;;5.97;4.73;;;;;;;;;;5053922;28;20311;-65
2021/12/03 01:59:20;;;;;;;6.47;4.63;;;;;;;;;;5034656;28;20424;-64
2021/12/03 02:01:46;;;;;;;4.90;3.93;;;;;;;;;;5034743;28;20192;-67
2021/12/03 02:04:12;;;;;;;8.45;5.30;;;;;;;;;;5034625;28;20405;-66
2021/12/03 02:06:38;;;;;;;6.53;4.80;;;;;;;;;;5038511;28;20318;-66
2021/12/03 02:09:05;;;;;;;8.68;4.85;;;;;;;;;;5054556;28;20213;-67
2021/12/03 02:11:31;;;;;;;7.55;4.90;;;;;;;;;;5054306;28;20177;-66
2021/12/03 02:13:57;;;;;;;6.57;4.72;;;;;;;;;;5054256;28;20564;-66
2021/12/03 02:16:24;;;;;;;8.27;4.80;;;;;;;;;;5042392;28;20647;-67
2021/12/03 02:18:50;;;;;;;8.68;5.35;;;;;;;;;;5034322;28;20174;-65
2021/12/03 02:21:17;;;;;;;6.10;4.15;;;;;;;;;;5036774;28;20178;-67
2021/12/03 02:23:43;;;;;;;7.72;4.40;;;;;;;;;;5034196;28;20231;-66
2021/12/03 02:26:10;;;;;;;6.45;4.78;;;;;;;;;;5034193;28;20631;-68
2021/12/03 02:28:39;;;;;;;6.75;4.05;;;;;;;;;;5034082;28;20207;-66
2021/12/03 02:31:05;;;;;;;6.30;4.40;;;;;;;;;;5034133;28;20211;-67
2021/12/03 02:33:34;;;;;;;8.30;4.60;;;;;;;;;;5041893;28;20204;-65
2021/12/03 02:36:00;;;;;;;9.07;4.90;;;;;;;;;;5053602;28;20202;-67
2021/12/03 02:38:27;;;;;;;8.55;5.20;;;;;;;;;;5053967;28;20169;-66
2021/12/03 02:40:55;;;;;;;6.10;4.68;;;;;;;;;;5053987;28;20165;-66
2021/12/03 02:43:21;;;;;;;8.93;5.30;;;;;;;;;;5038511;28;20176;-67
2021/12/03 02:45:48;;;;;;;7.90;4.47;;;;;;;;;;5033927;28;20267;-67
2021/12/03 02:48:14;;;;;;;5.53;4.22;;;;;;;;;;5033736;28;20180;-67
2021/12/03 02:50:40;;;;;;;7.30;5.28;;;;;;;;;;5033674;28;20172;-68
2021/12/03 02:53:06;;;;;;;7.05;4.68;;;;;;;;;;5033618;28;20208;-65
2021/12/03 02:55:32;;;;;;;4.82;4.10;;;;;;;;;;5033469;28;20225;-65
2021/12/03 02:57:58;;;;;;;8.63;5.25;;;;;;;;;;5033634;28;20266;-67
2021/12/03 03:00:26;;;;;;;5.15;4.57;;;;;;;;;;5033500;28;20201;-68
2021/12/03 03:02:52;;;;;;;10.30;4.60;;;;;;;;;;5033639;28;20259;-67
2021/12/03 03:05:21;;;;;;;12.18;5.85;;;;;;;;;;5033553;28;20196;-67
2021/12/03 03:07:47;;;;;;;5.60;4.50;;;;;;;;;;5033545;28;20196;-67
2021/12/03 03:10:15;;;;;;;7.53;4.63;;;;;;;;;;5050281;28;20619;-66
2021/12/03 03:12:41;;;;;;;8.48;5.88;;;;;;;;;;5053188;28;20549;-64
2021/12/03 03:15:08;;;;;;;8.73;4.78;;;;;;;;;;5052950;28;20266;-64
2021/12/03 03:17:35;;;;;;;7.25;4.53;;;;;;;;;;5049385;28;20172;-65
2021/12/03 03:20:01;;;;;;;6.07;5.10;;;;;;;;;;5033369;28;20189;-66
2021/12/03 03:22:28;;;;;;;5.72;4.45;;;;;;;;;;5033246;28;20197;-64
2021/12/03 03:24:59;;;;;;;8.75;5.35;;;;;;;;;;5033249;28;20168;-65
2021/12/03 03:27:25;;;;;;;7.25;4.57;;;;;;;;;;5033078;28;20645;-64
2021/12/03 03:29:51;;;;;;;7.85;5.00;;;;;;;;;;5033095;28;20190;-64
2021/12/03 03:32:18;;;;;;;8.55;5.55;;;;;;;;;;5033066;28;20211;-63
2021/12/03 03:34:44;;;;;;;6.90;4.75;;;;;;;;;;5033178;28;20177;-64
2021/12/03 03:37:10;;;;;;;8.25;4.07;;;;;;;;;;5033131;28;20221;-64
2021/12/03 03:39:37;;;;;;;9.18;5.47;;;;;;;;;;5033264;28;20200;-65
2021/12/03 03:42:03;;;;;;;8.93;5.05;;;;;;;;;;5033117;28;20322;-65
2021/12/03 03:44:29;;;;;;;5.97;4.63;;;;;;;;;;5044550;28;20181;-64
2021/12/03 03:46:57;;;;;;;7.50;4.38;;;;;;;;;;5054100;28;20635;-66
2021/12/03 03:49:24;;;;;;;8.20;4.65;;;;;;;;;;5057161;28;20206;-63
2021/12/03 03:51:51;;;;;;;7.22;4.55;;;;;;;;;;5056074;28;20190;-63
2021/12/03 03:54:18;;;;;;;6.80;5.53;;;;;;;;;;5055705;28;20263;-65
2021/12/03 03:56:44;;;;;;;6.32;4.30;;;;;;;;;;5056779;28;20289;-65
2021/12/03 03:59:10;;;;;;;6.20;4.55;;;;;;;;;;5056856;28;20668;-64
2021/12/03 04:01:36;;;;;;;5.03;4.32;;;;;;;;;;5053237;28;20556;-65
2021/12/03 04:04:03;;;;;;;8.55;4.93;;;;;;;;;;5036802;28;20551;-64
2021/12/03 04:06:29;;;;;;;7.60;5.15;;;;;;;;;;5036887;28;20181;-65
2021/12/03 04:08:55;;;;;;;5.63;4.70;;;;;;;;;;5036951;28;20174;-65
2021/12/03 04:11:22;;;;;;;6.30;4.50;;;;;;;;;;5036592;28;20791;-63
2021/12/03 04:13:48;;;;;;;6.38;4.65;;;;;;;;;;5036740;28;20213;-64
2021/12/03 04:16:14;;;;;;;11.98;5.10;;;;;;;;;;5036704;28;20639;-64
2021/12/03 04:18:40;;;;;;;8.60;5.70;;;;;;;;;;5039128;28;20187;-65
2021/12/03 04:21:06;;;;;;;6.72;5.15;;;;;;;;;;5049068;28;20188;-65
2021/12/03 04:23:33;;;;;;;6.60;5.07;;;;;;;;;;5056459;28;20552;-64
2021/12/03 04:25:59;;;;;;;12.32;5.50;;;;;;;;;;5056464;28;20425;-64
2021/12/03 04:28:25;;;;;;;6.28;5.10;;;;;;;;;;5052347;28;20291;-65
2021/12/03 04:30:51;;;;;;;8.40;5.00;;;;;;;;;;5035774;28;20186;-64
2021/12/03 04:33:18;;;;;;;8.15;5.50;;;;;;;;;;5036233;28;20581;-65
2021/12/03 04:35:44;;;;;;;6.75;4.90;;;;;;;;;;5036376;28;20182;-65
2021/12/03 04:38:10;;;;;;;8.38;5.28;;;;;;;;;;5049417;28;20179;-64
2021/12/03 04:40:38;;;;;;;8.45;5.10;;;;;;;;;;5056157;28;20210;-64
2021/12/03 04:43:05;;;;;;;8.45;5.03;;;;;;;;;;5056036;28;20178;-65
2021/12/03 04:45:31;;;;;;;7.85;5.82;;;;;;;;;;5056066;28;20187;-64
2021/12/03 04:47:58;;;;;;;7.88;5.40;;;;;;;;;;5042875;28;20183;-64
2021/12/03 04:50:25;;;;;;;6.97;5.35;;;;;;;;;;5036134;28;20252;-64
2021/12/03 04:52:51;;;;;;;8.98;6.00;;;;;;;;;;5035895;28;20558;-65
2021/12/03 04:55:18;;;;;;;7.10;5.77;;;;;;;;;;5039618;28;20552;-64
2021/12/03 04:57:44;;;;;;;8.70;5.45;;;;;;;;;;5054272;28;20415;-65
2021/12/03 05:00:16;;;;;;;5.30;4.40;;;;;;;;;;5055737;28;20730;-67
2021/12/03 05:02:42;;;;;;;9.50;5.33;;;;;;;;;;5055806;28;20412;-65
2021/12/03 05:05:08;;;;;;;8.27;5.67;;;;;;;;;;5043868;28;20424;-66
2021/12/03 05:10:04;;;;;;;10.38;5.47;;;;;;;;;;5036279;28;20291;-65
2021/12/03 05:12:30;;;;;;;7.03;5.27;;;;;;;;;;5055431;28;20288;-65
2021/12/03 05:14:56;;;;;;;8.68;5.32;;;;;;;;;;5054772;28;20449;-64
2021/12/03 05:17:22;;;;;;;7.27;5.73;;;;;;;;;;5055333;28;20187;-64
2021/12/03 05:19:48;;;;;;;8.50;5.90;;;;;;;;;;5055387;28;20509;-65
2021/12/03 05:22:14;;;;;;;5.70;4.80;;;;;;;;;;5043194;28;20186;-63
2021/12/03 05:24:45;;;;;;;7.10;5.13;;;;;;;;;;5035403;28;20409;-64
2021/12/03 05:27:11;;;;;;;9.65;5.60;;;;;;;;;;5035447;28;20426;-65
2021/12/03 05:29:37;;;;;;;9.00;5.07;;;;;;;;;;5035115;28;20232;-64
2021/12/03 05:32:03;;;;;;;7.87;5.40;;;;;;;;;;5035030;28;20972;-64
2021/12/03 05:34:29;;;;;;;9.87;6.17;;;;;;;;;;5035221;28;20522;-64
2021/12/03 05:36:55;;;;;;;10.23;5.97;;;;;;;;;;5035110;28;20498;-64
2021/12/03 05:39:22;;;;;;;8.93;5.90;;;;;;;;;;5035032;28;20520;-65
2021/12/03 05:41:48;;;;;;;8.57;5.90;;;;;;;;;;5035068;28;20412;-64
2021/12/03 05:44:14;;;;;;;10.30;6.22;;;;;;;;;;5035198;28;20420;-65
2021/12/03 05:46:40;;;;;;;7.82;5.65;;;;;;;;;;5035001;28;20203;-64
2021/12/03 05:49:06;;;;;;;7.93;5.50;;;;;;;;;;5039941;28;20182;-65
2021/12/03 05:51:33;;;;;;;8.47;5.50;;;;;;;;;;5054895;28;20902;-66
2021/12/03 05:53:59;;;;;;;7.13;5.03;;;;;;;;;;5054717;28;20528;-66
2021/12/03 05:56:25;;;;;;;8.50;5.10;;;;;;;;;;5054363;28;20474;-67
2021/12/03 05:58:51;;;;;;;8.53;5.60;;;;;;;;;;5040312;28;20513;-67
2021/12/03 06:01:18;;;;;;;6.90;5.00;;;;;;;;;;5034704;28;20514;-67
2021/12/03 06:03:45;;;;;;;5.20;4.70;;;;;;;;;;5034716;28;20728;-66
2021/12/03 06:06:12;;;;;;;10.33;5.57;;;;;;;;;;5034448;28;20427;-67
2021/12/03 06:08:38;;;;;;;7.22;5.20;;;;;;;;;;5034349;28;20403;-66
2021/12/03 06:11:04;;;;;;;7.95;5.13;;;;;;;;;;5033813;28;20180;-66
2021/12/03 06:13:30;;;;;;;7.63;5.40;;;;;;;;;;5034341;28;20574;-66
2021/12/03 06:15:56;;;;;;;7.57;5.93;;;;;;;;;;5046329;28;20415;-66
2021/12/03 06:18:22;;;;;;;6.32;5.63;;;;;;;;;;5054492;28;20742;-66
2021/12/03 06:20:48;;;;;;;8.40;6.17;;;;;;;;;;5054275;28;20225;-66
2021/12/03 06:23:14;;;;;;;6.00;4.87;;;;;;;;;;5054183;28;20497;-64
2021/12/03 06:25:40;;;;;;;7.90;5.93;;;;;;;;;;5053309;28;20560;-65
2021/12/03 06:28:07;;;;;;;5.80;5.07;;;;;;;;;;5053954;28;20411;-66
2021/12/03 06:30:33;;;;;;;7.97;5.40;;;;;;;;;;5053842;28;20196;-66
2021/12/03 06:32:59;;;;;;;8.18;5.75;;;;;;;;;;5054067;28;20464;-66
2021/12/03 06:35:25;;;;;;;7.80;5.57;;;;;;;;;;5053105;28;20176;-65
2021/12/03 06:37:52;;;;;;;10.25;5.95;;;;;;;;;;5053818;28;20186;-66
2021/12/03 06:40:20;;;;;;;8.32;5.80;;;;;;;;;;5053864;28;20698;-67
2021/12/03 06:42:46;;;;;;;10.20;6.25;;;;;;;;;;5040975;28;20184;-64
2021/12/03 06:45:12;;;;;;;9.82;6.20;;;;;;;;;;5033805;28;20208;-66
2021/12/03 06:47:38;;;;;;;7.68;5.60;;;;;;;;;;5033852;28;20182;-68
2021/12/03 06:50:08;;;;;;;6.77;5.20;;;;;;;;;;5033598;28;20704;-67
2021/12/03 06:52:35;;;;;;;7.13;5.30;;;;;;;;;;5033650;28;20458;-68
2021/12/03 06:55:04;;;;;;;7.80;5.17;;;;;;;;;;5033695;28;20855;-67
2021/12/03 06:57:30;;;;;;;9.18;5.55;;;;;;;;;;5033290;28;20467;-66
2021/12/03 06:59:56;;;;;;;9.38;6.28;;;;;;;;;;5033528;28;20192;-66
2021/12/03 07:02:22;;;;;;;7.30;6.15;;;;;;;;;;5033505;28;20185;-67
2021/12/03 07:04:48;;;;;;;7.30;5.13;;;;;;;;;;5042739;28;20313;-67
2021/12/03 07:07:14;;;;;;;10.20;6.25;;;;;;;;;;5052456;28;20933;-67
2021/12/03 07:09:41;;;;;;;11.50;6.20;;;;;;;;;;5053155;28;20577;-68
2021/12/03 07:12:08;;;;;;;8.02;5.85;;;;;;;;;;5053134;28;20168;-65
2021/12/03 07:14:34;;;;;;;7.50;5.10;;;;;;;;;;5053337;28;20176;-68
2021/12/03 07:17:05;;;;;;;7.80;5.27;;;;;;;;;;5043205;28;20187;-68
2021/12/03 07:19:31;;;;;;;8.18;5.90;;;;;;;;;;5033436;28;20779;-67
2021/12/03 07:21:57;;;;;;;8.63;5.57;;;;;;;;;;5033194;28;20168;-67
2021/12/03 07:24:23;;;;;;;10.07;4.95;;;;;;;;;;5033202;28;20542;-66
2021/12/03 07:26:49;;;;;;;10.03;5.27;;;;;;;;;;5043052;28;20229;-66
2021/12/03 07:29:15;;;;;;;6.27;4.57;;;;;;;;;;5052923;28;21088;-66
2021/12/03 07:31:41;;;;;;;6.60;4.93;;;;;;;;;;5053017;28;20442;-68
2021/12/03 07:34:09;;;;;;;7.90;4.57;;;;;;;;;;5052966;28;20483;-66
2021/12/03 07:36:35;;;;;;;6.95;5.28;;;;;;;;;;5052114;28;20988;-67
2021/12/03 07:39:01;;;;;;;12.13;5.60;;;;;;;;;;5053077;28;20180;-68
2021/12/03 07:41:27;;;;;;;8.40;4.95;;;;;;;;;;5053059;28;20464;-68
2021/12/03 07:43:53;;;;;;;10.17;6.10;;;;;;;;;;5052952;28;20174;-67
2021/12/03 07:46:19;;;;;;;6.45;5.40;;;;;;;;;;5052315;28;20480;-67
2021/12/03 07:48:47;;;;;;;6.80;5.10;;;;;;;;;;5052751;28;20573;-66
2021/12/03 07:51:16;;;;;;;9.30;5.20;;;;;;;;;;5052993;28;20444;-68
2021/12/03 07:53:42;;;;;;;9.23;5.83;;;;;;;;;;5051875;28;20501;-67
2021/12/03 07:56:09;;;;;;;7.07;4.97;;;;;;;;;;5052562;28;20556;-65
2021/12/03 07:58:35;;;;;;;7.90;5.40;;;;;;;;;;5052666;28;20438;-66
2021/12/03 08:01:01;;;;;;;7.47;5.33;;;;;;;;;;5052730;28;20718;-67
2021/12/03 08:03:27;;;;;;;8.10;5.50;;;;;;;;;;5051884;28;20897;-69
2021/12/03 08:05:53;;;;;;;13.50;5.53;;;;;;;;;;5052844;28;20394;-68
2021/12/03 08:08:24;;;;;;;7.70;5.80;;;;;;;;;;5052669;28;20425;-67
2021/12/03 08:10:50;;;;;;;8.87;5.77;;;;;;;;;;5042274;28;20446;-67
2021/12/03 08:13:16;;;;;;;6.13;5.03;;;;;;;;;;5032991;28;20995;-67
2021/12/03 08:15:42;;;;;;;8.00;5.57;;;;;;;;;;5034749;28;20457;-66
2021/12/03 08:18:09;;;;;;;9.33;5.80;;;;;;;;;;5032462;28;20883;-68
2021/12/03 08:20:35;;;;;;;8.20;5.03;;;;;;;;;;5044595;28;20513;-67
2021/12/03 08:23:01;;;;;;;7.20;5.60;;;;;;;;;;5052618;28;20443;-74
2021/12/03 08:25:27;;;;;;;7.37;4.83;;;;;;;;;;5052445;28;20415;-72
2021/12/03 08:27:54;;;;;;;8.60;5.27;;;;;;;;;;5052394;28;20442;-71
2021/12/03 08:30:20;;;;;;;7.00;5.30;;;;;;;;;;5051736;28;20752;-72
2021/12/03 08:32:47;;;;;;;9.53;6.80;;;;;;;;;;5053255;28;20471;-74
2021/12/03 08:35:14;;;;;;;10.77;6.30;;;;;;;;;;5056265;28;20407;-73
2021/12/03 08:37:45;;;;;;;8.53;6.10;;;;;;;;;;5056016;28;20410;-74
2021/12/03 08:40:11;;;;;;;9.30;6.30;;;;;;;;;;5044109;28;20430;-75
2021/12/03 08:42:37;;;;;;;10.60;6.50;;;;;;;;;;5036217;28;20410;-75
2021/12/03 08:45:04;;;;;;;12.40;6.20;;;;;;;;;;5036129;28;21105;-75
2021/12/03 08:47:30;;;;;;;11.90;5.80;;;;;;;;;;5036150;28;20438;-73
2021/12/03 08:49:57;;;;;;;9.60;5.90;;;;;;;;;;5051820;28;20909;-74
2021/12/03 08:52:35;;;;;;;8.47;6.13;;;;;;;;;;5055959;28;20407;-75
2021/12/03 08:55:01;;;;;;;11.93;6.13;;;;;;;;;;5054574;28;20428;-76
2021/12/03 08:57:32;;;;;;;9.60;6.20;;;;;;;;;;5044057;28;20529;-78
2021/12/03 09:00:00;;;;;;;12.33;6.63;;;;;;;;;;5034434;28;20458;-78
2021/12/03 09:02:26;;;;;;;8.80;6.30;;;;;;;;;;5035782;28;20433;-74
2021/12/03 09:04:52;;;;;;;7.10;5.73;;;;;;;;;;5035500;28;20408;-66
2021/12/03 09:07:18;;;;;;;9.70;6.27;;;;;;;;;;5049892;28;20531;-68
2021/12/03 09:09:45;;;;;;;7.83;5.10;;;;;;;;;;5055557;28;20463;-65
2021/12/03 09:12:11;;;;;;;6.83;4.40;;;;;;;;;;5054745;28;20406;-65
2021/12/03 09:19:57;;;;;;;7.73;4.90;;;;;;;;;;5045812;28;20921;-66
2021/12/03 09:22:42;;;;;;;4.20;3.70;;;;;;;;;;5045820;28;20407;-71
2021/12/03 09:25:11;;;;;;;6.00;3.80;;;;;;;;;;5045639;28;20417;-65
2021/12/03 09:27:37;;;;;;;5.90;3.37;;;;;;;;;;5044095;28;20411;-70
2021/12/03 09:30:05;;;;;;;4.33;3.10;;;;;;;;;;5044241;28;20514;-71
2021/12/03 09:32:32;;;;;;;5.17;3.00;;;;;;;;;;5046340;28;20502;-66
2021/12/03 09:34:59;;;;;;;3.03;2.83;;;;;;;;;;5040680;28;20439;-70
2021/12/03 09:37:25;;;;;;;3.73;3.13;;;;;;;;;;5051816;28;20775;-69
2021/12/03 09:39:51;;;;;;;4.43;2.90;;;;;;;;;;5044590;28;20560;-71
2021/12/03 09:42:21;;;;;;;4.70;2.77;;;;;;;;;;5045431;28;20408;-70
2021/12/03 09:44:50;;;;;;;6.10;4.20;;;;;;;;;;5045286;28;20407;-69
2021/12/03 09:47:17;;;;;;;4.40;3.10;;;;;;;;;;5054027;28;20919;-69
2021/12/03 09:49:44;;;;;;;4.23;3.37;;;;;;;;;;5054189;28;20764;-67
2021/12/03 09:52:26;;;;;;;8.03;3.33;;;;;;;;;;5054014;28;20893;-68
2021/12/03 09:54:57;;;;;;;4.13;2.87;;;;;;;;;;5054918;28;20750;-69
2021/12/03 09:57:37;;;;;;;4.70;2.90;;;;;;;;;;5053781;28;20595;-68
2021/12/03 10:00:54;;;;;;;4.20;2.83;;;;;;;;;;5053489;28;20401;-68
2021/12/03 10:18:55;;;;;;;3.57;2.73;;;;;;;;;;5033480;28;20778;-66
2021/12/03 10:25:02;;;;;;;3.00;2.50;;;;;;;;;;5033459;28;20905;-70
2021/12/03 10:30:30;;;;;;;4.10;2.80;;;;;;;;;;5033352;28;20514;-69
2021/12/03 10:33:32;;;;;;;4.03;3.20;;;;;;;;;;5033309;28;20478;-71
2021/12/03 10:49:36;;;;;;;2.70;2.50;;;;;;;;;;5053157;28;20666;-67
2021/12/03 12:27:05;;;;;;;4.00;2.67;;;;;;;;;;5036507;28;20497;-65
2021/12/03 13:06:04;;;;;;;4.60;2.70;;;;;;;;;;5054959;28;20421;-67
2021/12/03 13:10:47;;;;;;;6.50;2.63;;;;;;;;;;5055765;28;20981;-67
2021/12/03 13:38:37;;;;;;;7.90;2.30;;;;;;;;;;5055267;28;20460;-66
2021/12/03 14:42:21;;;;;;;3.50;2.20;;;;;;;;;;5060409;28;20424;-69
2021/12/03 14:55:52;;;;;;;3.90;2.60;;;;;;;;;;5032997;28;20459;-67
2021/12/03 14:58:21;;;;;;;4.60;2.00;;;;;;;;;;5044687;28;20431;-66
2021/12/03 15:00:55;;;;;;;6.90;3.10;;;;;;;;;;5052207;28;20405;-66
2021/12/03 15:08:30;;;;;;;3.93;2.37;;;;;;;;;;5033531;28;20456;-69
2021/12/03 15:19:43;;;;;;;3.13;2.23;;;;;;;;;;5033482;28;20406;-69
2021/12/03 15:32:44;;;;;;;5.33;2.53;;;;;;;;;;5034714;28;20470;-66
2021/12/03 15:35:17;;;;;;;5.47;2.47;;;;;;;;;;5033323;28;20412;-68
2021/12/03 16:04:27;;;;;;;6.50;3.20;;;;;;;;;;5052837;28;20498;-69
2021/12/03 16:07:06;;;;;;;5.30;3.47;;;;;;;;;;5051807;28;20407;-69
2021/12/03 16:17:45;;;;;;;4.53;3.00;;;;;;;;;;5051939;28;20418;-67
2021/12/03 16:43:36;;;;;;;6.90;3.10;;;;;;;;;;5052736;28;20449;-67
2021/12/03 16:52:49;;;;;;;6.70;3.60;;;;;;;;;;5051498;28;20948;-68
2021/12/03 16:55:16;;;;;;;5.00;3.33;;;;;;;;;;5055433;28;20442;-68
2021/12/03 16:57:43;;;;;;;5.37;3.20;;;;;;;;;;5054324;28;20568;-68
2021/12/03 17:00:24;;;;;;;6.90;3.83;;;;;;;;;;5055905;28;20444;-68
2021/12/03 17:03:04;;;;;;;6.20;3.30;;;;;;;;;;5055027;28;20436;-67
2021/12/03 17:46:42;;;;;;;6.40;3.37;;;;;;;;;;5042740;28;20483;-68
2021/12/03 17:51:57;;;;;;;4.30;3.50;;;;;;;;;;5054866;28;20464;-68
2021/12/03 17:54:34;;;;;;;3.80;3.40;;;;;;;;;;5054000;28;20497;-69
2021/12/03 17:57:15;;;;;;;5.10;3.53;;;;;;;;;;5054643;28;20506;-70
2021/12/03 17:59:43;;;;;;;6.90;4.00;;;;;;;;;;5054836;28;20767;-69
2021/12/03 18:04:53;;;;;;;4.83;3.70;;;;;;;;;;5054464;28;20410;-68
2021/12/03 18:07:30;;;;;;;5.67;3.47;;;;;;;;;;5053071;28;20808;-69
2021/12/03 18:55:41;;;;;;;4.13;3.00;;;;;;;;;;5033717;28;20451;-68
2021/12/03 18:58:08;;;;;;;6.83;3.83;;;;;;;;;;5046026;28;20455;-71
2021/12/03 19:00:39;;;;;;;4.17;3.20;;;;;;;;;;5053161;28;20510;-67
2021/12/03 19:03:17;;;;;;;5.53;4.13;;;;;;;;;;5053648;28;20391;-70
2021/12/03 19:11:21;;;;;;;5.40;3.80;;;;;;;;;;5053717;28;20456;-68
2021/12/03 19:13:47;;;;;;;4.60;3.70;;;;;;;;;;5049786;28;20482;-68
2021/12/03 19:16:16;;;;;;;6.67;3.60;;;;;;;;;;5033080;28;20494;-68
2021/12/03 19:18:47;;;;;;;4.07;3.40;;;;;;;;;;5033293;28;20750;-68
2021/12/03 19:21:18;;;;;;;5.60;3.60;;;;;;;;;;5033292;28;20394;-68
2021/12/03 19:23:45;;;;;;;5.47;3.87;;;;;;;;;;5033162;28;20476;-69
2021/12/03 19:26:11;;;;;;;5.10;3.80;;;;;;;;;;5033201;28;20416;-68
2021/12/03 19:28:39;;;;;;;9.23;4.13;;;;;;;;;;5033117;28;20436;-68
2021/12/03 19:31:06;;;;;;;8.43;4.20;;;;;;;;;;5033326;28;20408;-66
2021/12/03 19:33:33;;;;;;;4.57;3.77;;;;;;;;;;5048050;28;20489;-66
2021/12/03 19:36:00;;;;;;;6.87;3.20;;;;;;;;;;5052974;28;20955;-67
2021/12/03 19:38:26;;;;;;;4.57;3.60;;;;;;;;;;5053047;28;20398;-67
2021/12/03 19:40:58;;;;;;;6.37;3.60;;;;;;;;;;5052034;28;20426;-67
2021/12/03 19:43:30;;;;;;;4.87;3.80;;;;;;;;;;5053033;28;20409;-66
2021/12/03 19:46:03;;;;;;;7.70;5.07;;;;;;;;;;5052931;28;20402;-66
2021/12/03 19:49:09;;;;;;;6.33;4.40;;;;;;;;;;5052070;28;20778;-66
2021/12/03 19:51:22;;;;;;;8.67;4.97;;;;;;;;;;5053681;28;20417;-66
2021/12/03 19:53:57;;;;;;;8.17;4.50;;;;;;;;;;5052881;28;20462;-66
2021/12/03 19:56:23;;;;;;;4.37;3.50;;;;;;;;;;5051435;28;20501;-66
2021/12/03 19:58:50;;;;;;;4.80;3.73;;;;;;;;;;5051950;28;20438;-66
2021/12/03 20:01:16;;;;;;;6.77;4.40;;;;;;;;;;5051657;28;20493;-67
2021/12/03 20:03:43;;;;;;;9.10;4.47;;;;;;;;;;5052930;28;20518;-66
2021/12/03 20:06:09;;;;;;;5.97;4.00;;;;;;;;;;5051888;28;20501;-66
2021/12/03 20:08:35;;;;;;;5.60;4.57;;;;;;;;;;5049359;28;20403;-68
2021/12/03 20:11:06;;;;;;;6.77;4.37;;;;;;;;;;5052738;28;20505;-67
2021/12/03 20:13:33;;;;;;;7.90;4.40;;;;;;;;;;5052719;28;20809;-68
2021/12/03 20:18:52;;;;;;;9.57;4.40;;;;;;;;;;5032881;28;20824;-68
2021/12/03 20:21:19;;;;;;;5.53;3.90;;;;;;;;;;5032820;28;20834;-67
2021/12/03 20:29:20;;;;;;;6.63;4.10;;;;;;;;;;5034296;28;20824;-67
2021/12/03 20:31:48;;;;;;;5.20;4.30;;;;;;;;;;5036556;28;20456;-66
2021/12/03 20:36:51;;;;;;;7.90;4.53;;;;;;;;;;5036404;28;20407;-66
2021/12/03 20:39:24;;;;;;;5.03;3.60;;;;;;;;;;5036425;28;20403;-66
2021/12/03 20:42:11;;;;;;;5.43;4.10;;;;;;;;;;5036365;28;20434;-66
2021/12/03 20:44:50;;;;;;;5.97;4.07;;;;;;;;;;5036299;28;20452;-66
2021/12/03 21:08:43;;;;;;;4.00;3.47;;;;;;;;;;5035927;28;20423;-68
2021/12/03 21:11:19;;;;;;;5.90;4.20;;;;;;;;;;5035870;28;20423;-69
2021/12/03 21:13:47;;;;;;;6.33;3.77;;;;;;;;;;5035783;28;20474;-68
2021/12/03 21:21:11;;;;;;;6.70;3.77;;;;;;;;;;5035519;28;20411;-69
2021/12/03 21:23:47;;;;;;;6.90;3.27;;;;;;;;;;5035789;28;20887;-68
2021/12/03 21:26:21;;;;;;;4.10;3.67;;;;;;;;;;5034161;28;20767;-69
2021/12/03 21:31:28;;;;;;;6.23;4.60;;;;;;;;;;5035320;28;20997;-68
2021/12/03 21:39:54;;;;;;;6.50;4.00;;;;;;;;;;5040862;28;20960;-69
2021/12/03 21:42:20;;;;;;;8.40;4.87;;;;;;;;;;5055150;28;20411;-67
2021/12/03 21:44:46;;;;;;;9.83;4.43;;;;;;;;;;5055164;28;20402;-66
2021/12/03 21:47:12;;;;;;;5.47;3.77;;;;;;;;;;5055017;28;20546;-69
2021/12/03 21:49:38;;;;;;;7.60;3.77;;;;;;;;;;5036879;28;20415;-70
2021/12/03 21:52:04;;;;;;;6.93;4.10;;;;;;;;;;5034990;28;21011;-66
2021/12/03 21:54:30;;;;;;;4.33;3.43;;;;;;;;;;5034910;28;20493;-67
2021/12/03 21:57:01;;;;;;;4.00;3.53;;;;;;;;;;5045915;28;20473;-66
2021/12/03 21:59:27;;;;;;;5.40;4.10;;;;;;;;;;5054853;28;20454;-67
2021/12/03 22:01:56;;;;;;;3.73;3.40;;;;;;;;;;5054751;28;20493;-67
2021/12/03 22:04:22;;;;;;;6.20;4.27;;;;;;;;;;5049240;28;20420;-67
2021/12/03 22:06:49;;;;;;;4.23;3.60;;;;;;;;;;5037093;28;20478;-70
2021/12/03 22:09:15;;;;;;;4.00;3.07;;;;;;;;;;5034690;28;20430;-69
2021/12/03 22:11:43;;;;;;;4.00;3.10;;;;;;;;;;5034703;28;20396;-66
2021/12/03 22:14:09;;;;;;;3.33;3.03;;;;;;;;;;5048066;28;20557;-69
2021/12/03 22:16:35;;;;;;;4.93;3.70;;;;;;;;;;5054362;28;20909;-67
2021/12/03 22:19:01;;;;;;;7.50;3.53;;;;;;;;;;5054476;28;20417;-67
2021/12/03 22:21:27;;;;;;;4.33;3.70;;;;;;;;;;5054373;28;20409;-67
2021/12/03 22:23:53;;;;;;;3.80;3.23;;;;;;;;;;5053535;28;20445;-68
2021/12/03 22:26:19;;;;;;;5.43;3.57;;;;;;;;;;5052943;28;20966;-68
2021/12/03 22:28:45;;;;;;;7.40;3.80;;;;;;;;;;5054037;28;20488;-68
2021/12/03 22:31:12;;;;;;;5.00;3.47;;;;;;;;;;5053402;28;20418;-68
2021/12/03 22:33:40;;;;;;;6.43;3.20;;;;;;;;;;5052957;28;20558;-67
2021/12/03 22:36:06;;;;;;;5.23;3.90;;;;;;;;;;5052786;28;20414;-67
2021/12/03 22:38:32;;;;;;;4.83;2.63;;;;;;;;;;5053192;28;20425;-67
2021/12/03 22:40:58;;;;;;;4.17;3.57;;;;;;;;;;5054135;28;20406;-67
2021/12/03 22:43:25;;;;;;;6.27;2.90;;;;;;;;;;5054124;28;20426;-67
2021/12/03 22:45:59;;;;;;;6.27;3.50;;;;;;;;;;5052682;28;20407;-67
2021/12/03 22:50:59;;;;;;;3.90;2.83;;;;;;;;;;5053684;28;20411;-67
2021/12/03 22:53:25;;;;;;;3.67;2.80;;;;;;;;;;5053618;28;20464;-67
2021/12/03 22:55:52;;;;;;;3.27;2.90;;;;;;;;;;5047764;28;20530;-67
2021/12/03 22:58:18;;;;;;;2.70;2.17;;;;;;;;;;5033775;28;20420;-67
2021/12/03 23:00:44;;;;;;;4.80;3.00;;;;;;;;;;5033787;28;20462;-67
2021/12/03 23:03:11;;;;;;;5.10;3.40;;;;;;;;;;5033821;28;20496;-67
2021/12/03 23:05:38;;;;;;;4.17;2.93;;;;;;;;;;5033433;28;20418;-66
2021/12/03 23:08:04;;;;;;;5.17;3.30;;;;;;;;;;5032227;28;20457;-66
2021/12/03 23:10:30;;;;;;;4.53;3.30;;;;;;;;;;5033491;28;20430;-66
2021/12/03 23:12:56;;;;;;;5.87;3.40;;;;;;;;;;5036860;28;20960;-67
2021/12/03 23:15:24;;;;;;;5.10;3.23;;;;;;;;;;5053410;28;20410;-67
2021/12/03 23:17:50;;;;;;;4.87;2.60;;;;;;;;;;5053365;28;20419;-66